Time;durP1;ratioP1;P1;durP2;ratioP2;P2;SDS_P1;SDS_P2;PMS_P1;PMS_P2;Temp;Humidity;BMP_temperature;BMP_pressure;BME280_temperature;BME280_humidity;BME280_pressure;Samples;Min_cycle;Max_cycle;Signal;HPM_P1;HPM_P2
2022/06/05 00:02:15;;;;;;;19.85;12.13;;;;;;;20.43;100.00;97527.91;5096473;28;20019;-79
2022/06/05 00:04:57;;;;;;;21.77;11.70;;;;;;;20.40;100.00;97530.94;5049137;28;20032;-79
2022/06/05 00:07:37;;;;;;;21.55;12.20;;;;;;;20.39;100.00;97529.25;5099005;28;20028;-79
2022/06/05 00:10:23;;;;;;;15.65;11.45;;;;;;;20.41;100.00;97529.94;5100182;28;20030;-79
2022/06/05 00:13:01;;;;;;;18.40;11.13;;;;;;;20.40;100.00;97515.47;5088345;28;20027;-79
2022/06/05 00:15:27;;;;;;;21.55;12.18;;;;;;;20.39;100.00;97529.25;5079726;28;20032;-79
2022/06/05 00:17:53;;;;;;;15.38;10.63;;;;;;;20.32;100.00;97522.72;5082101;28;20020;-79
2022/06/05 00:20:19;;;;;;;13.50;10.60;;;;;;;20.33;100.00;97519.81;5079895;28;20506;-79
2022/06/05 00:22:46;;;;;;;21.90;10.52;;;;;;;20.34;100.00;97526.13;5084593;28;20035;-79
2022/06/05 00:25:13;;;;;;;17.80;11.43;;;;;;;20.30;100.00;97524.75;5075133;28;20419;-79
2022/06/05 00:27:48;;;;;;;17.95;11.10;;;;;;;20.29;100.00;97531.19;5099018;28;20503;-79
2022/06/05 00:30:17;;;;;;;19.33;11.40;;;;;;;20.30;100.00;97530.19;5098808;28;20032;-77
2022/06/05 00:33:03;;;;;;;20.98;11.23;;;;;;;20.22;100.00;97511.91;5092798;28;20568;-79
2022/06/05 00:35:33;;;;;;;14.13;11.00;;;;;;;20.34;100.00;97531.56;5085455;28;20054;-79
2022/06/05 00:38:21;;;;;;;14.07;10.88;;;;;;;20.41;100.00;97536.22;5106122;28;20057;-79
2022/06/05 00:40:56;;;;;;;17.30;10.50;;;;;;;20.34;100.00;97532.41;5085065;28;20032;-79
2022/06/05 00:43:23;;;;;;;16.50;10.90;;;;;;;20.41;100.00;97544.38;5094613;28;20475;-78
2022/06/05 00:45:48;;;;;;;17.15;10.57;;;;;;;20.39;100.00;97531.97;5077969;28;20520;-79
2022/06/05 00:48:15;;;;;;;14.85;10.77;;;;;;;20.37;100.00;97534.81;5075533;28;20127;-79
2022/06/05 00:50:42;;;;;;;15.27;10.55;;;;;;;20.41;100.00;97540.78;5092099;28;20023;-79
2022/06/05 00:53:08;;;;;;;15.02;10.35;;;;;;;20.40;100.00;97542.66;5081623;28;20023;-79
2022/06/05 00:55:48;;;;;;;14.57;10.48;;;;;;;20.38;100.00;97538.41;5083150;28;20483;-79
2022/06/05 00:58:15;;;;;;;20.27;10.38;;;;;;;20.34;100.00;97537.84;5099506;28;20024;-79
2022/06/05 01:00:44;;;;;;;21.55;10.25;;;;;;;20.39;100.00;97551.84;5109369;28;20027;-79
2022/06/05 01:03:17;;;;;;;15.82;9.82;;;;;;;20.24;100.00;97536.19;5088781;28;20032;-79
2022/06/05 01:05:43;;;;;;;16.52;10.43;;;;;;;20.20;100.00;97532.94;5079771;28;20177;-79
2022/06/05 01:08:10;;;;;;;12.13;9.57;;;;;;;20.15;100.00;97537.97;5073614;28;20077;-79
2022/06/05 01:10:43;;;;;;;12.88;9.35;;;;;;;20.14;100.00;97540.84;5089886;28;20035;-79
2022/06/05 01:13:41;;;;;;;17.83;9.98;;;;;;;20.13;100.00;97534.56;5099811;28;20024;-79
2022/06/05 01:16:26;;;;;;;19.77;9.85;;;;;;;20.12;100.00;97532.84;5055998;28;20032;-79
2022/06/05 01:19:06;;;;;;;12.98;8.95;;;;;;;20.02;100.00;97532.06;5098094;28;20031;-78
2022/06/05 01:21:35;;;;;;;18.35;9.52;;;;;;;20.00;100.00;97539.50;5074843;28;20016;-78
2022/06/05 01:24:14;;;;;;;14.07;9.18;;;;;;;19.93;100.00;97533.00;5090811;28;20045;-78
2022/06/05 01:26:49;;;;;;;26.05;10.20;;;;;;;19.92;100.00;97529.44;5077037;28;20514;-78
2022/06/05 01:29:29;;;;;;;16.83;10.52;;;;;;;19.85;100.00;97533.75;5091027;28;20032;-78
2022/06/05 01:31:58;;;;;;;17.27;9.85;;;;;;;19.86;100.00;97521.91;5103299;28;20043;-78
2022/06/05 01:34:29;;;;;;;17.00;10.77;;;;;;;19.83;100.00;97521.34;5098828;28;20039;-77
2022/06/05 01:37:12;;;;;;;14.90;10.02;;;;;;;19.71;100.00;97526.13;5103127;28;20474;-78
2022/06/05 01:39:48;;;;;;;14.52;9.98;;;;;;;19.68;100.00;97523.72;5064399;28;20027;-77
2022/06/05 01:42:30;;;;;;;15.20;9.88;;;;;;;19.55;100.00;97519.66;5081123;28;20449;-77
2022/06/05 01:44:59;;;;;;;21.30;10.43;;;;;;;19.58;100.00;97531.06;5080569;28;20023;-78
2022/06/05 01:47:32;;;;;;;21.85;10.85;;;;;;;19.55;100.00;97523.22;5078334;28;20055;-78
2022/06/05 01:50:21;;;;;;;11.13;9.90;;;;;;;19.58;100.00;97528.34;5095690;28;20027;-78
2022/06/05 01:52:54;;;;;;;16.67;10.82;;;;;;;19.58;100.00;97532.91;5094125;28;20034;-78
2022/06/05 01:55:33;;;;;;;27.05;10.80;;;;;;;19.57;100.00;97521.19;5079836;28;20036;-77
2022/06/05 01:58:02;;;;;;;15.75;11.50;;;;;;;19.52;100.00;97522.66;5089019;28;20032;-78
2022/06/05 02:00:28;;;;;;;21.58;11.18;;;;;;;19.50;100.00;97520.13;5086168;28;20093;-79
2022/06/05 02:02:56;;;;;;;27.73;10.23;;;;;;;19.48;100.00;97528.41;5107109;28;20456;-79
2022/06/05 02:05:29;;;;;;;16.95;11.20;;;;;;;19.47;100.00;97520.44;5110707;28;20541;-79
2022/06/05 02:08:03;;;;;;;15.52;10.57;;;;;;;19.42;100.00;97522.72;5082770;28;20027;-79
2022/06/05 02:10:34;;;;;;;13.18;10.70;;;;;;;19.37;100.00;97519.56;5103023;28;20080;-79
2022/06/05 02:13:00;;;;;;;14.80;10.27;;;;;;;19.36;100.00;97526.84;5104767;28;20020;-79
2022/06/05 02:15:27;;;;;;;18.33;10.32;;;;;;;19.27;100.00;97508.75;5103627;28;20028;-79
2022/06/05 02:17:52;;;;;;;14.90;10.07;;;;;;;19.32;100.00;97521.88;5082160;28;20020;-79
2022/06/05 02:20:18;;;;;;;19.23;10.68;;;;;;;19.27;100.00;97516.03;5095475;28;20023;-79
2022/06/05 02:22:47;;;;;;;19.35;10.75;;;;;;;19.32;100.00;97511.88;5087847;28;20031;-79
2022/06/05 02:25:14;;;;;;;17.02;10.63;;;;;;;19.24;100.00;97505.50;5086214;28;20173;-80
2022/06/05 02:27:40;;;;;;;18.48;11.48;;;;;;;19.22;100.00;97504.81;5088159;28;20044;-79
2022/06/05 02:30:07;;;;;;;18.27;10.35;;;;;;;19.16;100.00;97505.41;5081836;28;20182;-79
2022/06/05 02:32:58;;;;;;;23.83;10.75;;;;;;;19.02;100.00;97503.16;5084011;28;20027;-79
2022/06/05 02:35:37;;;;;;;14.13;10.50;;;;;;;19.03;100.00;97510.28;5108188;28;20040;-79
2022/06/05 02:38:12;;;;;;;21.27;10.52;;;;;;;19.00;100.00;97507.88;5092911;28;20107;-79
2022/06/05 02:40:40;;;;;;;15.15;10.48;;;;;;;19.06;100.00;97515.41;5101254;28;20027;-79
2022/06/05 02:43:30;;;;;;;20.20;10.32;;;;;;;19.10;100.00;97508.72;5109967;28;20024;-79
2022/06/05 02:46:02;;;;;;;19.45;10.23;;;;;;;19.16;100.00;97510.81;5072936;28;20560;-79
2022/06/05 02:48:41;;;;;;;21.73;11.25;;;;;;;19.22;100.00;97510.22;5102882;28;20089;-79
2022/06/05 02:51:16;;;;;;;21.45;11.13;;;;;;;19.23;100.00;97509.19;5070778;28;20032;-79
2022/06/05 02:53:54;;;;;;;15.27;10.63;;;;;;;19.28;100.00;97512.34;5090706;28;20028;-79
2022/06/05 02:56:20;;;;;;;19.83;10.40;;;;;;;19.26;100.00;97508.91;5082051;28;20089;-79
2022/06/05 02:58:49;;;;;;;17.15;10.88;;;;;;;19.21;100.00;97519.34;5085706;28;20028;-79
2022/06/05 03:03:59;;;;;;;17.17;10.93;;;;;;;19.31;100.00;97523.75;5096668;28;20520;-79
2022/06/05 03:06:28;;;;;;;23.33;10.65;;;;;;;19.29;100.00;97519.44;5096699;28;20028;-79
2022/06/05 03:08:54;;;;;;;16.35;10.73;;;;;;;19.33;100.00;97523.59;5086269;28;20160;-79
2022/06/05 03:11:19;;;;;;;25.75;11.00;;;;;;;19.35;100.00;97516.13;5105441;28;20123;-79
2022/06/05 03:13:45;;;;;;;18.92;10.85;;;;;;;19.35;100.00;97516.13;5083918;28;20024;-79
2022/06/05 03:16:10;;;;;;;17.60;10.02;;;;;;;19.27;100.00;97511.47;5087214;28;20027;-79
2022/06/05 03:18:36;;;;;;;19.60;9.88;;;;;;;19.24;100.00;97521.75;5090323;28;20028;-79
2022/06/05 03:21:01;;;;;;;21.17;10.82;;;;;;;19.17;100.00;97518.78;5083229;28;20024;-80
2022/06/05 03:23:27;;;;;;;19.80;10.23;;;;;;;19.15;100.00;97519.94;5099964;28;20028;-80
2022/06/05 03:25:53;;;;;;;20.25;10.82;;;;;;;19.14;100.00;97518.22;5083687;28;20498;-80
2022/06/05 03:28:18;;;;;;;16.42;10.02;;;;;;;19.15;100.00;97520.81;5086524;28;20088;-79
2022/06/05 03:30:44;;;;;;;16.00;9.57;;;;;;;19.11;100.00;97519.38;5085891;28;20038;-79
2022/06/05 03:33:11;;;;;;;13.05;9.60;;;;;;;19.11;100.00;97523.94;5087413;28;20031;-79
2022/06/05 03:35:40;;;;;;;20.95;10.55;;;;;;;19.06;100.00;97526.25;5103616;28;20023;-80
2022/06/05 03:38:06;;;;;;;18.55;10.20;;;;;;;19.17;100.00;97539.63;5106891;28;20104;-79
2022/06/05 03:40:32;;;;;;;24.27;10.38;;;;;;;19.16;100.00;97536.09;5083002;28;20137;-79
2022/06/05 03:42:59;;;;;;;23.08;11.65;;;;;;;19.19;100.00;97537.66;5089476;28;20028;-80
2022/06/05 03:45:24;;;;;;;19.63;11.68;;;;;;;19.20;100.00;97544.75;5081894;28;20490;-80
2022/06/05 03:47:50;;;;;;;22.20;11.43;;;;;;;19.37;100.00;97535.84;5095431;28;20070;-80
2022/06/05 03:50:17;;;;;;;25.73;11.80;;;;;;;19.42;100.00;97537.13;5085763;28;20066;-79
2022/06/05 03:52:43;;;;;;;17.80;10.43;;;;;;;19.57;100.00;97542.06;5085224;28;20082;-80
2022/06/05 03:55:11;;;;;;;20.52;10.63;;;;;;;19.72;100.00;97551.44;5082458;28;20054;-80
2022/06/05 03:57:36;;;;;;;20.42;10.27;;;;;;;19.78;100.00;97529.94;5082611;28;20028;-80
2022/06/05 04:00:04;;;;;;;19.50;10.13;;;;;;;19.89;100.00;97531.59;5085711;28;20024;-78
2022/06/05 04:02:31;;;;;;;23.15;10.75;;;;;;;19.90;100.00;97545.00;5102677;28;20020;-79
2022/06/05 04:04:59;;;;;;;21.58;13.07;;;;;;;19.99;100.00;97544.06;5094631;28;20027;-79
2022/06/05 04:07:24;;;;;;;18.55;10.48;;;;;;;20.01;100.00;97544.78;5089063;28;20038;-79
2022/06/05 04:09:50;;;;;;;17.63;10.35;;;;;;;20.10;100.00;97553.03;5083603;28;20451;-79
2022/06/05 04:12:15;;;;;;;21.88;11.50;;;;;;;20.21;100.00;97556.34;5078603;28;20024;-79
2022/06/05 04:14:41;;;;;;;19.83;11.55;;;;;;;20.27;100.00;97550.34;5085668;28;20020;-79
2022/06/05 04:17:06;;;;;;;23.42;10.38;;;;;;;20.61;100.00;97553.19;5096746;28;20024;-79
2022/06/05 04:19:34;;;;;;;16.52;9.82;;;;;;;20.76;100.00;97553.50;5085533;28;20023;-79
2022/06/05 04:22:00;;;;;;;22.00;10.50;;;;;;;20.88;100.00;97558.53;5082976;28;20137;-79
2022/06/05 04:24:26;;;;;;;26.02;10.23;;;;;;;20.89;100.00;97543.91;5075085;28;20479;-80
2022/06/05 04:26:51;;;;;;;20.98;9.93;;;;;;;21.01;100.00;97541.78;5099781;28;20028;-80
2022/06/05 04:29:17;;;;;;;17.40;10.02;;;;;;;21.16;100.00;97544.81;5090701;28;20046;-79
2022/06/05 04:31:45;;;;;;;14.48;9.57;;;;;;;21.40;100.00;97543.06;5084078;28;20046;-78
2022/06/05 04:34:13;;;;;;;13.93;9.15;;;;;;;21.31;100.00;97532.31;5078172;28;20508;-79
2022/06/05 04:36:39;;;;;;;15.27;9.73;;;;;;;21.13;100.00;97539.69;5088059;28;20486;-79
2022/06/05 04:39:07;;;;;;;18.80;9.95;;;;;;;21.21;100.00;97539.72;5075028;28;20034;-80
2022/06/05 04:41:32;;;;;;;16.95;10.32;;;;;;;21.48;100.00;97528.63;5084463;28;20414;-79
2022/06/05 04:43:58;;;;;;;18.10;9.75;;;;;;;21.81;100.00;97532.38;5078973;28;20020;-80
2022/06/05 04:46:25;;;;;;;14.57;9.18;;;;;;;22.14;100.00;97543.22;5084390;28;20067;-79
2022/06/05 04:48:51;;;;;;;22.27;15.98;;;;;;;22.33;100.00;97533.03;5081822;28;20031;-80
2022/06/05 04:51:18;;;;;;;16.67;9.52;;;;;;;22.30;100.00;97536.09;5076716;28;20023;-79
2022/06/05 04:53:45;;;;;;;17.95;9.13;;;;;;;22.04;100.00;97523.44;5099292;28;20023;-80
2022/06/05 04:56:13;;;;;;;14.25;9.43;;;;;;;22.70;100.00;97536.16;5102235;28;20569;-79
2022/06/05 04:58:39;;;;;;;16.98;8.77;;;;;;;23.80;100.00;97543.59;5070665;28;20034;-80
2022/06/05 05:01:11;;;;;;;20.23;9.55;;;;;;;24.59;94.49;97557.00;5080198;28;20487;-80
2022/06/05 05:03:37;;;;;;;13.57;9.07;;;;;;;24.50;93.69;97556.19;5095810;28;20028;-80
2022/06/05 05:06:03;;;;;;;17.67;8.73;;;;;;;25.28;89.47;97567.72;5106999;28;20391;-79
2022/06/05 05:08:28;;;;;;;17.00;9.15;;;;;;;26.56;81.75;97566.31;5081611;28;20051;-79
2022/06/05 05:10:53;;;;;;;14.85;8.18;;;;;;;27.64;74.05;97566.06;5101150;28;20046;-80
2022/06/05 05:13:19;;;;;;;12.40;9.43;;;;;;;27.20;74.28;97574.56;5081315;28;20111;-79
2022/06/05 05:15:49;;;;;;;19.88;10.15;;;;;;;28.21;70.40;97572.09;5081118;28;20411;-79
2022/06/05 05:18:14;;;;;;;16.95;9.90;;;;;;;28.19;68.45;97573.38;5078181;28;20066;-79
2022/06/05 05:20:40;;;;;;;20.13;11.23;;;;;;;28.31;68.22;97578.06;5088929;28;20448;-80
2022/06/05 05:23:07;;;;;;;29.42;11.48;;;;;;;29.11;65.81;97581.91;5103789;28;20425;-79
2022/06/05 05:25:33;;;;;;;28.55;13.23;;;;;;;30.31;60.89;97574.97;5079983;28;20028;-78
2022/06/05 05:27:59;;;;;;;29.70;14.73;;;;;;;31.22;56.08;97578.34;5085516;28;20400;-81
2022/06/05 05:30:25;;;;;;;30.40;13.85;;;;;;;31.53;54.81;97575.53;5080064;28;20034;-79
2022/06/05 05:32:50;;;;;;;27.02;14.55;;;;;;;31.99;53.17;97564.03;5084620;28;20045;-79
2022/06/05 05:35:16;;;;;;;29.98;14.70;;;;;;;32.30;51.58;97574.13;5080027;28;20035;-79
2022/06/05 05:37:42;;;;;;;26.98;13.20;;;;;;;32.49;50.92;97563.84;5099365;28;20035;-78
2022/06/05 05:42:54;;;;;;;24.48;12.07;;;;;;;33.67;48.25;97581.53;5088778;28;20564;-80
2022/06/05 05:45:19;;;;;;;21.52;10.98;;;;;;;34.12;46.67;97571.53;5099882;28;20042;-79
2022/06/05 05:47:45;;;;;;;19.65;11.13;;;;;;;34.38;45.82;97564.59;5078009;28;20032;-79
2022/06/05 05:50:15;;;;;;;19.67;11.65;;;;;;;34.94;44.61;97558.25;5081149;28;20032;-79
2022/06/05 05:52:42;;;;;;;21.73;11.80;;;;;;;34.92;44.83;97563.22;5080331;28;20024;-79
2022/06/05 05:55:14;;;;;;;24.67;14.88;;;;;;;35.49;43.40;97554.81;5082863;28;20088;-80
2022/06/05 05:57:40;;;;;;;18.40;9.98;;;;;;;36.06;42.29;97555.47;5076027;28;20020;-79
2022/06/05 06:00:09;;;;;;;14.63;9.20;;;;;;;35.59;42.89;97555.03;5085184;28;20024;-79
2022/06/05 06:02:35;;;;;;;20.63;9.35;;;;;;;35.93;42.94;97561.41;5081370;28;20522;-80
2022/06/05 06:05:01;;;;;;;17.33;9.52;;;;;;;36.69;41.10;97566.09;5078374;28;20092;-80
2022/06/05 06:07:27;;;;;;;16.45;9.00;;;;;;;37.62;39.99;97568.53;5077558;28;20032;-80
2022/06/05 06:09:52;;;;;;;25.35;15.10;;;;;;;38.54;37.74;97556.84;5098642;28;20039;-79
2022/06/05 06:12:18;;;;;;;27.58;11.60;;;;;;;37.44;38.94;97563.28;5090716;28;20437;-79
2022/06/05 06:14:43;;;;;;;35.00;14.93;;;;;;;36.98;40.30;97564.75;5090226;28;20147;-80
2022/06/05 06:17:09;;;;;;;29.42;13.32;;;;;;;37.80;38.80;97556.09;5087801;28;20399;-79
2022/06/05 06:19:36;;;;;;;38.38;19.83;;;;;;;36.94;40.88;97558.88;5082118;28;20023;-80
2022/06/05 06:22:02;;;;;;;25.15;13.57;;;;;;;38.11;39.00;97557.16;5091075;28;20495;-79
2022/06/05 06:24:27;;;;;;;30.20;14.32;;;;;;;37.65;39.66;97558.75;5092170;28;20401;-78
2022/06/05 06:26:53;;;;;;;24.20;13.85;;;;;;;36.93;40.19;97565.56;5108264;28;20034;-78
2022/06/05 06:29:26;;;;;;;27.67;13.75;;;;;;;37.78;39.28;97570.31;5109043;28;20482;-80
2022/06/05 06:31:52;;;;;;;31.23;13.63;;;;;;;38.22;38.13;97556.09;5080762;28;20391;-80
2022/06/05 06:34:18;;;;;;;20.23;12.57;;;;;;;37.75;38.52;97554.06;5095902;27;20047;-79
2022/06/05 06:36:43;;;;;;;31.83;12.52;;;;;;;37.14;39.54;97563.00;5087413;28;20032;-80
2022/06/05 06:39:09;;;;;;;33.72;15.77;;;;;;;37.44;39.53;97552.13;5099030;28;20028;-80
2022/06/05 06:41:34;;;;;;;35.70;22.83;;;;;;;38.24;38.57;97546.31;5101660;28;20106;-80
2022/06/05 06:44:03;;;;;;;26.70;10.93;;;;;;;38.29;38.41;97542.72;5095606;28;20144;-80
2022/06/05 06:46:29;;;;;;;31.10;14.43;;;;;;;38.97;36.63;97544.44;5088336;28;20396;-80
2022/06/05 06:48:54;;;;;;;17.52;10.90;;;;;;;38.75;36.99;97539.03;5075020;28;20459;-79
2022/06/05 06:51:20;;;;;;;28.02;14.75;;;;;;;39.47;35.93;97554.91;5107487;28;20110;-79
2022/06/05 06:53:45;;;;;;;25.95;10.40;;;;;;;39.73;36.37;97559.41;5104005;28;20106;-79
2022/06/05 06:56:15;;;;;;;16.48;9.23;;;;;;;38.13;37.47;97555.78;5085761;28;20034;-78
2022/06/05 06:58:41;;;;;;;23.13;14.93;;;;;;;38.75;36.66;97553.03;5077396;28;20035;-78
2022/06/05 07:01:07;;;;;;;27.05;8.75;;;;;;;39.13;35.56;97554.56;5075148;28;20051;-79
2022/06/05 07:03:34;;;;;;;17.27;7.88;;;;;;;38.73;36.00;97557.22;5083614;28;20407;-78
2022/06/05 07:06:04;;;;;;;18.02;10.85;;;;;;;38.95;35.78;97547.50;5094333;28;20524;-78
2022/06/05 07:08:30;;;;;;;15.80;7.30;;;;;;;39.54;35.66;97555.44;5106418;28;20027;-79
2022/06/05 07:10:55;;;;;;;13.13;7.03;;;;;;;38.88;36.03;97558.13;5099620;28;20032;-78
2022/06/05 07:13:21;;;;;;;14.77;9.60;;;;;;;40.15;34.10;97549.84;5083346;28;20483;-80
2022/06/05 07:15:46;;;;;;;13.38;9.13;;;;;;;40.37;33.78;97550.34;5083186;28;20062;-80
2022/06/05 07:18:12;;;;;;;20.98;10.52;;;;;;;40.42;33.10;97541.91;5089443;28;20032;-80
2022/06/05 07:20:40;;;;;;;12.43;6.57;;;;;;;41.51;31.15;97535.16;5106507;28;20506;-80
2022/06/05 07:23:06;;;;;;;21.83;8.57;;;;;;;41.99;30.76;97528.59;5086550;28;20410;-79
2022/06/05 07:25:34;;;;;;;17.27;9.48;;;;;;;42.03;30.68;97532.44;5080652;28;20049;-79
2022/06/05 07:27:59;;;;;;;10.68;6.75;;;;;;;42.10;30.40;97527.31;5077330;28;20415;-79
2022/06/05 07:30:29;;;;;;;21.50;7.05;;;;;;;42.31;30.23;97518.66;5077372;28;20030;-79
2022/06/05 07:32:54;;;;;;;10.02;5.60;;;;;;;41.82;30.50;97518.91;5085534;28;20488;-78
2022/06/05 07:35:20;;;;;;;14.10;6.35;;;;;;;42.35;30.14;97522.56;5091105;28;20114;-78
2022/06/05 07:37:46;;;;;;;11.93;5.95;;;;;;;40.76;31.29;97495.22;5096921;28;20046;-78
2022/06/05 07:40:12;;;;;;;16.67;6.78;;;;;;;41.67;31.19;97519.84;5091075;28;20107;-78
2022/06/05 07:42:39;;;;;;;13.73;6.05;;;;;;;41.00;30.11;97496.22;5085833;28;20052;-79
2022/06/05 07:45:06;;;;;;;28.02;6.35;;;;;;;40.25;31.35;97493.72;5057305;28;20037;-78
2022/06/05 07:47:32;;;;;;;16.00;5.55;;;;;;;40.84;30.70;97499.34;5075224;28;20028;-78
2022/06/05 07:49:57;;;;;;;13.18;6.63;;;;;;;39.41;33.07;97494.41;5091238;28;20092;-79
2022/06/05 07:55:08;;;;;;;12.30;5.90;;;;;;;40.19;32.28;97489.25;5105409;28;20087;-79
2022/06/05 07:57:34;;;;;;;8.68;5.80;;;;;;;41.70;30.06;97493.13;5074106;28;20502;-79
2022/06/05 07:59:59;;;;;;;9.57;5.70;;;;;;;40.88;30.32;97490.09;5076604;28;20028;-80
2022/06/05 08:02:27;;;;;;;9.43;5.53;;;;;;;40.49;31.74;97500.34;5090639;28;20020;-79
2022/06/05 08:04:54;;;;;;;13.77;5.30;;;;;;;40.57;30.75;97495.03;5084966;28;20031;-79
2022/06/05 08:07:22;;;;;;;11.60;5.68;;;;;;;40.94;31.56;97499.34;5079375;28;20051;-79
2022/06/05 08:09:48;;;;;;;16.45;7.30;;;;;;;39.85;31.93;97484.28;5090063;28;20484;-78
2022/06/05 08:12:17;;;;;;;11.18;5.43;;;;;;;39.73;32.45;97485.69;5081220;28;20108;-79
2022/06/05 08:14:44;;;;;;;10.73;5.28;;;;;;;40.22;32.19;97483.06;5091211;28;20028;-80
2022/06/05 08:17:13;;;;;;;12.38;5.45;;;;;;;41.16;30.51;97496.94;5093965;28;20114;-79
2022/06/05 08:19:41;;;;;;;13.88;5.18;;;;;;;41.16;30.22;97482.91;5088335;28;20024;-79
2022/06/05 08:22:08;;;;;;;11.13;5.15;;;;;;;40.84;30.63;97488.97;5093731;28;20448;-80
2022/06/05 08:24:33;;;;;;;13.23;5.70;;;;;;;40.28;31.66;97484.72;5083552;28;20042;-79
2022/06/05 08:26:59;;;;;;;9.02;4.75;;;;;;;39.81;31.30;97483.16;5084616;28;20040;-79
2022/06/05 08:29:25;;;;;;;8.40;4.38;;;;;;;41.62;29.18;97477.75;5084582;28;20544;-78
2022/06/05 08:31:53;;;;;;;8.65;4.50;;;;;;;41.79;29.15;97480.13;5081594;28;20039;-80
2022/06/05 08:34:19;;;;;;;11.50;4.88;;;;;;;42.11;27.60;97469.94;5100461;28;20039;-80
2022/06/05 08:36:45;;;;;;;8.45;4.60;;;;;;;41.54;29.43;97476.41;5073789;28;20514;-80
2022/06/05 08:42:16;;;;;;;8.65;5.53;;;;;;;39.62;30.99;97473.66;5110930;28;20030;-77
2022/06/05 08:44:58;;;;;;;8.70;4.55;;;;;;;40.99;29.43;97463.63;5080047;28;20107;-78
2022/06/05 08:47:30;;;;;;;11.50;5.65;;;;;;;41.44;28.60;97461.63;5109414;28;20057;-80
2022/06/05 08:50:12;;;;;;;5.50;3.67;;;;;;;41.35;26.24;97455.78;5103343;28;20028;-78
2022/06/05 08:52:57;;;;;;;6.28;4.57;;;;;;;43.40;24.12;97444.25;5077087;28;20024;-79
2022/06/05 08:55:32;;;;;;;8.07;3.58;;;;;;;43.98;23.48;97438.94;5109639;28;20024;-79
2022/06/05 08:58:09;;;;;;;9.07;4.47;;;;;;;43.37;24.37;97450.50;5100836;28;20019;-79
2022/06/05 09:00:52;;;;;;;13.43;6.68;;;;;;;43.11;24.62;97447.22;5072968;28;20049;-79
2022/06/05 09:04:26;;;;;;;5.65;3.60;;;;;;;43.97;24.29;97448.53;5081035;28;20502;-80
2022/06/05 09:06:57;;;;;;;7.32;4.57;;;;;;;44.37;24.08;97446.06;5014756;28;20449;-79
2022/06/05 09:09:28;;;;;;;13.40;4.15;;;;;;;44.49;24.55;97447.19;5013666;28;20032;-79
2022/06/05 09:12:03;;;;;;;8.88;4.03;;;;;;;43.12;25.44;97437.63;5076282;28;20422;-80
2022/06/05 09:14:32;;;;;;;8.75;4.68;;;;;;;42.67;26.28;97441.13;5084849;28;20023;-79
2022/06/05 09:17:03;;;;;;;7.90;4.32;;;;;;;44.04;24.58;97440.50;5108365;28;20475;-79
2022/06/05 09:19:30;;;;;;;4.70;4.00;;;;;;;43.54;25.75;97439.47;5092839;28;20450;-79
2022/06/05 09:22:22;;;;;;;6.43;4.00;;;;;;;44.42;25.29;97444.00;5109891;28;20099;-79
2022/06/05 09:25:27;;;;;;;8.55;4.30;;;;;;;43.71;25.81;97439.72;5086715;28;20039;-80
2022/06/05 09:28:12;;;;;;;57.63;38.47;;;;;;;41.92;28.74;97446.53;5103531;28;20503;-79
2022/06/05 09:30:51;;;;;;;6.82;4.63;;;;;;;42.11;27.59;97439.00;5110791;28;20565;-79
2022/06/05 09:33:29;;;;;;;7.18;4.30;;;;;;;42.28;28.16;97441.34;5092877;28;20126;-79
2022/06/05 09:35:58;;;;;;;7.45;4.60;;;;;;;43.07;28.18;97446.16;5080858;28;20119;-79
2022/06/05 09:38:29;;;;;;;9.88;5.20;;;;;;;43.53;26.73;97436.97;5072463;28;20381;-79
2022/06/05 09:41:07;;;;;;;7.85;4.43;;;;;;;44.41;25.52;97438.63;5101365;28;20019;-79
2022/06/05 09:43:41;;;;;;;12.52;4.07;;;;;;;43.45;27.38;97432.88;5100878;28;20487;-79
2022/06/05 09:46:28;;;;;;;10.38;5.07;;;;;;;43.71;26.09;97433.25;5106486;28;20031;-79
2022/06/05 09:48:58;;;;;;;6.07;3.88;;;;;;;44.90;24.51;97426.53;5089355;28;20042;-79
2022/06/05 09:51:24;;;;;;;10.13;4.57;;;;;;;43.56;26.18;97416.63;5072577;28;20440;-79
2022/06/05 09:54:06;;;;;;;20.80;3.88;;;;;;;43.70;26.10;97415.47;5072182;28;20346;-78
2022/06/05 09:59:53;;;;;;;11.15;4.15;;;;;;;43.39;26.26;97413.53;5090593;28;20589;-79
2022/06/05 10:02:22;;;;;;;8.10;3.90;;;;;;;43.56;26.11;97419.44;5098918;28;20051;-78
2022/06/05 10:04:49;;;;;;;8.35;3.90;;;;;;;43.33;26.67;97426.84;5081751;28;20028;-78
2022/06/05 10:07:27;;;;;;;10.73;4.32;;;;;;;43.52;27.20;97430.50;5089270;28;20034;-78
2022/06/05 10:09:53;;;;;;;7.70;4.20;;;;;;;43.96;26.20;97423.47;5076963;28;20032;-78
2022/06/05 10:12:23;;;;;;;10.13;3.83;;;;;;;43.07;27.30;97434.88;5090548;28;20038;-78
2022/06/05 10:14:57;;;;;;;14.82;4.15;;;;;;;43.80;26.23;97424.94;5096110;28;20063;-78
2022/06/05 10:17:41;;;;;;;10.80;4.72;;;;;;;43.36;25.98;97409.31;5113100;28;20058;-78
2022/06/05 10:20:12;;;;;;;10.00;4.70;;;;;;;43.91;25.92;97421.59;5113042;28;20049;-78
2022/06/05 10:23:00;;;;;;;9.13;3.90;;;;;;;43.73;25.28;97409.22;5104602;28;20034;-80
2022/06/05 10:25:57;;;;;;;16.10;4.18;;;;;;;44.75;24.65;97414.47;5113058;28;20031;-79
2022/06/05 10:28:26;;;;;;;11.52;4.65;;;;;;;44.92;24.65;97408.13;5079934;28;20465;-78
2022/06/05 10:30:57;;;;;;;17.65;6.63;;;;;;;44.56;24.38;97398.81;5088428;28;20115;-79
2022/06/05 10:33:43;;;;;;;8.57;4.25;;;;;;;44.24;24.49;97394.97;5102208;28;20513;-79
2022/06/05 10:36:44;;;;;;;30.38;5.35;;;;;;;44.80;24.54;97399.34;5078166;28;20023;-79
2022/06/05 10:39:22;;;;;;;5.65;3.13;;;;;;;43.87;24.72;97380.22;5091474;28;20097;-78
2022/06/05 10:41:57;;;;;;;8.57;4.32;;;;;;;42.93;24.72;97377.63;5083751;28;20058;-78
2022/06/05 10:45:15;;;;;;;10.55;4.35;;;;;;;43.71;24.40;97376.84;5093699;28;20090;-78
2022/06/05 10:47:56;;;;;;;11.98;4.88;;;;;;;44.19;23.73;97369.69;4997467;28;20537;-78
2022/06/05 10:50:39;;;;;;;16.55;6.50;;;;;;;43.95;23.99;97371.03;5107538;28;20027;-78
2022/06/05 10:53:22;;;;;;;7.88;3.70;;;;;;;44.34;23.75;97371.31;5100925;28;20116;-78
2022/06/05 10:56:15;;;;;;;8.48;3.15;;;;;;;44.36;23.83;97366.22;5091863;28;20118;-79
2022/06/05 10:58:56;;;;;;;5.00;3.13;;;;;;;43.98;23.62;97361.94;5084819;28;20055;-78
2022/06/05 11:01:31;;;;;;;5.78;2.60;;;;;;;44.03;23.34;97359.84;5085079;28;20051;-79
2022/06/05 11:04:04;;;;;;;5.30;2.60;;;;;;;44.20;23.60;97364.88;5074781;28;20028;-79
2022/06/05 11:06:42;;;;;;;6.43;3.42;;;;;;;44.58;23.47;97359.81;5107861;28;20031;-78
2022/06/05 11:09:34;;;;;;;6.03;3.38;;;;;;;43.25;24.38;97340.22;5100658;28;20036;-78
2022/06/05 11:14:55;;;;;;;4.32;2.40;;;;;;;40.98;27.26;97352.44;5101691;28;20031;-78
2022/06/05 11:17:33;;;;;;;4.47;2.13;;;;;;;41.09;27.09;97353.22;5101306;28;20024;-78
2022/06/05 11:20:14;;;;;;;13.60;2.70;;;;;;;41.77;26.36;97347.47;5111008;28;20023;-78
2022/06/05 11:23:02;;;;;;;7.65;2.95;;;;;;;42.78;25.32;97352.56;5078180;28;20510;-78
2022/06/05 11:25:51;;;;;;;3.30;2.60;;;;;;;43.42;25.07;97356.53;5090002;28;20028;-79
2022/06/05 11:28:44;;;;;;;4.85;2.33;;;;;;;43.39;24.18;97352.38;5068010;28;20036;-78
2022/06/05 11:31:09;;;;;;;7.03;2.40;;;;;;;43.41;23.73;97337.97;5105299;28;20031;-78
2022/06/05 11:33:46;;;;;;;11.43;2.50;;;;;;;43.02;24.13;97342.03;5098296;28;20043;-78
2022/06/05 11:36:38;;;;;;;4.60;2.17;;;;;;;43.41;23.41;97333.16;5077996;28;20558;-78
2022/06/05 11:39:23;;;;;;;8.98;2.22;;;;;;;42.85;24.44;97333.28;5076498;28;20020;-78
2022/06/05 11:42:04;;;;;;;3.22;2.33;;;;;;;42.61;25.06;97340.97;5074491;28;20115;-79
2022/06/05 11:44:34;;;;;;;5.18;2.47;;;;;;;43.29;24.06;97334.81;5102300;28;20024;-79
2022/06/05 11:47:06;;;;;;;13.77;2.30;;;;;;;43.50;24.13;97334.09;5090816;28;20108;-80
2022/06/05 11:49:59;;;;;;;10.48;2.70;;;;;;;43.28;23.96;97333.97;5098184;28;20465;-93
2022/06/05 11:53:06;;;;;;;6.30;2.20;;;;;;;43.64;23.44;97334.13;5107985;28;20016;-92
2022/06/05 11:55:39;;;;;;;3.83;2.00;;;;;;;43.47;23.94;97325.47;5103371;28;20044;-78
2022/06/05 11:58:10;;;;;;;7.53;2.40;;;;;;;42.48;25.40;97325.69;5104879;28;20027;-90